Dell Rapids, South Dakota
Current Conditions -  °F | °C
As of 7:56 AM on Thursday 29 Jan 2015 (Local Time) from KFSD Reporting Station
Overcast Overcast  
Wind Chill: 17°   Ceiling: 3500
Heat Index: 30°   Visibility: 10mi
Dew Point: 24°   Wind: 21mph
Humidity: 79%   Direction: 330°NNW
Pressure: 30.29"   Gusts: 29mph
Location:  43.83°N, 96.71°W
Report Text: KFSD 291356Z 33018G25KT 10SM SCT017 OVC035 M01/M04 A3029 RMK AO2 PK WND 34030/1313 SLP276 T10111044
Loading
Personal Weather Stations






























Interactive Weather Map New forecast layout! Learn more

10-Day Weather Forecast

Advertisements
Track Severe Weather on mobile